sensor_id;sensor_type;location;lat;lon;timestamp;temperature;humidity
16140;DHT22;8175;49.326;12.690;2024-03-02T00:02:14;4.80;99.90
16140;DHT22;8175;49.326;12.690;2024-03-02T00:04:40;4.90;99.90
16140;DHT22;8175;49.326;12.690;2024-03-02T00:07:06;4.80;99.90
16140;DHT22;8175;49.326;12.690;2024-03-02T00:09:33;4.80;99.90
16140;DHT22;8175;49.326;12.690;2024-03-02T00:12:00;4.70;99.90
16140;DHT22;8175;49.326;12.690;2024-03-02T00:14:29;4.70;99.90
16140;DHT22;8175;49.326;12.690;2024-03-02T00:16:55;4.70;99.90
16140;DHT22;8175;49.326;12.690;2024-03-02T00:19:22;4.70;99.90
16140;DHT22;8175;49.326;12.690;2024-03-02T00:21:47;4.70;99.90
16140;DHT22;8175;49.326;12.690;2024-03-02T00:24:45;4.70;99.90
16140;DHT22;8175;49.326;12.690;2024-03-02T00:27:14;4.70;99.90
16140;DHT22;8175;49.326;12.690;2024-03-02T00:29:40;4.70;99.90
16140;DHT22;8175;49.326;12.690;2024-03-02T00:32:13;4.70;99.90
16140;DHT22;8175;49.326;12.690;2024-03-02T00:34:39;4.70;99.90
16140;DHT22;8175;49.326;12.690;2024-03-02T00:37:05;4.70;99.90
16140;DHT22;8175;49.326;12.690;2024-03-02T00:39:31;4.70;99.90
16140;DHT22;8175;49.326;12.690;2024-03-02T00:41:57;4.70;99.90
16140;DHT22;8175;49.326;12.690;2024-03-02T00:44:25;4.70;99.90
16140;DHT22;8175;49.326;12.690;2024-03-02T00:46:52;4.70;99.90
16140;DHT22;8175;49.326;12.690;2024-03-02T00:49:21;4.70;99.90
16140;DHT22;8175;49.326;12.690;2024-03-02T00:51:51;4.70;99.90
16140;DHT22;8175;49.326;12.690;2024-03-02T00:54:22;4.80;99.90
16140;DHT22;8175;49.326;12.690;2024-03-02T00:56:50;4.80;99.90
16140;DHT22;8175;49.326;12.690;2024-03-02T00:59:16;4.80;99.90
16140;DHT22;8175;49.326;12.690;2024-03-02T01:01:41;4.70;99.90
16140;DHT22;8175;49.326;12.690;2024-03-02T01:04:08;4.70;99.90
16140;DHT22;8175;49.326;12.690;2024-03-02T01:06:35;4.80;99.90
16140;DHT22;8175;49.326;12.690;2024-03-02T01:09:00;4.80;99.90
16140;DHT22;8175;49.326;12.690;2024-03-02T01:11:26;4.70;99.90
16140;DHT22;8175;49.326;12.690;2024-03-02T01:13:52;4.80;99.90
16140;DHT22;8175;49.326;12.690;2024-03-02T01:16:17;4.80;99.90
16140;DHT22;8175;49.326;12.690;2024-03-02T01:18:43;4.70;99.90
16140;DHT22;8175;49.326;12.690;2024-03-02T01:21:09;4.80;99.90
16140;DHT22;8175;49.326;12.690;2024-03-02T01:23:34;4.70;99.90
16140;DHT22;8175;49.326;12.690;2024-03-02T01:26:00;4.70;99.90
16140;DHT22;8175;49.326;12.690;2024-03-02T01:28:26;4.70;99.90
16140;DHT22;8175;49.326;12.690;2024-03-02T01:30:51;4.80;99.90
16140;DHT22;8175;49.326;12.690;2024-03-02T01:33:18;4.70;99.90
16140;DHT22;8175;49.326;12.690;2024-03-02T01:35:44;4.70;99.90
16140;DHT22;8175;49.326;12.690;2024-03-02T01:38:10;4.80;99.90
16140;DHT22;8175;49.326;12.690;2024-03-02T01:40:37;4.80;99.90
16140;DHT22;8175;49.326;12.690;2024-03-02T01:43:04;4.90;99.90
16140;DHT22;8175;49.326;12.690;2024-03-02T01:45:29;4.80;99.90
16140;DHT22;8175;49.326;12.690;2024-03-02T01:47:55;4.80;99.90
16140;DHT22;8175;49.326;12.690;2024-03-02T01:50:29;4.80;99.90
16140;DHT22;8175;49.326;12.690;2024-03-02T01:52:56;4.80;99.90
16140;DHT22;8175;49.326;12.690;2024-03-02T01:55:22;4.80;99.90
16140;DHT22;8175;49.326;12.690;2024-03-02T01:57:49;4.80;99.90
16140;DHT22;8175;49.326;12.690;2024-03-02T02:00:16;4.80;99.90
16140;DHT22;8175;49.326;12.690;2024-03-02T02:02:42;4.90;99.90
16140;DHT22;8175;49.326;12.690;2024-03-02T02:05:08;4.90;99.90
16140;DHT22;8175;49.326;12.690;2024-03-02T02:07:35;4.80;99.90
16140;DHT22;8175;49.326;12.690;2024-03-02T02:10:01;4.80;99.90
16140;DHT22;8175;49.326;12.690;2024-03-02T02:12:26;4.80;99.90
16140;DHT22;8175;49.326;12.690;2024-03-02T02:14:52;4.80;99.90
16140;DHT22;8175;49.326;12.690;2024-03-02T02:17:18;4.80;99.90
16140;DHT22;8175;49.326;12.690;2024-03-02T02:19:44;4.70;99.90
16140;DHT22;8175;49.326;12.690;2024-03-02T02:22:10;4.80;99.90
16140;DHT22;8175;49.326;12.690;2024-03-02T02:24:40;4.80;99.90
16140;DHT22;8175;49.326;12.690;2024-03-02T02:27:06;4.80;99.90
16140;DHT22;8175;49.326;12.690;2024-03-02T02:29:32;4.80;99.90
16140;DHT22;8175;49.326;12.690;2024-03-02T02:31:58;4.80;99.90
16140;DHT22;8175;49.326;12.690;2024-03-02T02:34:23;4.80;99.90
16140;DHT22;8175;49.326;12.690;2024-03-02T02:36:49;4.90;99.90
16140;DHT22;8175;49.326;12.690;2024-03-02T02:39:16;4.80;99.90
16140;DHT22;8175;49.326;12.690;2024-03-02T02:41:42;4.90;99.90
16140;DHT22;8175;49.326;12.690;2024-03-02T02:44:08;4.80;99.90
16140;DHT22;8175;49.326;12.690;2024-03-02T02:46:36;4.80;99.90
16140;DHT22;8175;49.326;12.690;2024-03-02T02:49:03;4.90;99.90
16140;DHT22;8175;49.326;12.690;2024-03-02T02:51:29;4.90;99.90
16140;DHT22;8175;49.326;12.690;2024-03-02T02:53:54;4.80;99.90
16140;DHT22;8175;49.326;12.690;2024-03-02T02:56:20;4.80;99.90
16140;DHT22;8175;49.326;12.690;2024-03-02T02:58:46;4.90;99.90
16140;DHT22;8175;49.326;12.690;2024-03-02T03:01:11;4.90;99.90
16140;DHT22;8175;49.326;12.690;2024-03-02T03:03:37;4.80;99.90
16140;DHT22;8175;49.326;12.690;2024-03-02T03:06:03;4.80;99.90
16140;DHT22;8175;49.326;12.690;2024-03-02T03:08:28;4.80;99.90
16140;DHT22;8175;49.326;12.690;2024-03-02T03:10:54;4.80;99.90
16140;DHT22;8175;49.326;12.690;2024-03-02T03:13:20;4.80;99.90
16140;DHT22;8175;49.326;12.690;2024-03-02T03:15:45;4.80;99.90
16140;DHT22;8175;49.326;12.690;2024-03-02T03:18:11;4.90;99.90
16140;DHT22;8175;49.326;12.690;2024-03-02T03:20:37;4.90;99.90
16140;DHT22;8175;49.326;12.690;2024-03-02T03:23:03;4.90;99.90
16140;DHT22;8175;49.326;12.690;2024-03-02T03:25:30;4.90;99.90
16140;DHT22;8175;49.326;12.690;2024-03-02T03:27:55;4.90;99.90
16140;DHT22;8175;49.326;12.690;2024-03-02T03:30:21;4.80;99.90
16140;DHT22;8175;49.326;12.690;2024-03-02T03:32:47;4.80;99.90
16140;DHT22;8175;49.326;12.690;2024-03-02T03:35:13;4.80;99.90
16140;DHT22;8175;49.326;12.690;2024-03-02T03:37:41;4.80;99.90
16140;DHT22;8175;49.326;12.690;2024-03-02T03:40:07;4.80;99.90
16140;DHT22;8175;49.326;12.690;2024-03-02T03:42:38;4.80;99.90
16140;DHT22;8175;49.326;12.690;2024-03-02T03:45:05;4.80;99.90
16140;DHT22;8175;49.326;12.690;2024-03-02T03:47:34;4.80;99.90
16140;DHT22;8175;49.326;12.690;2024-03-02T03:50:00;4.80;99.90
16140;DHT22;8175;49.326;12.690;2024-03-02T03:52:25;4.90;99.90
16140;DHT22;8175;49.326;12.690;2024-03-02T03:54:51;4.90;99.90
16140;DHT22;8175;49.326;12.690;2024-03-02T03:57:17;4.90;99.90
16140;DHT22;8175;49.326;12.690;2024-03-02T03:59:43;4.90;99.90
16140;DHT22;8175;49.326;12.690;2024-03-02T04:02:09;4.80;99.90
16140;DHT22;8175;49.326;12.690;2024-03-02T04:04:37;4.80;99.90
16140;DHT22;8175;49.326;12.690;2024-03-02T04:07:02;4.80;99.90
16140;DHT22;8175;49.326;12.690;2024-03-02T04:09:28;4.80;99.90
16140;DHT22;8175;49.326;12.690;2024-03-02T04:11:54;4.90;99.90
16140;DHT22;8175;49.326;12.690;2024-03-02T04:14:19;4.80;99.90
16140;DHT22;8175;49.326;12.690;2024-03-02T04:16:45;4.80;99.90
16140;DHT22;8175;49.326;12.690;2024-03-02T04:19:10;4.80;99.90
16140;DHT22;8175;49.326;12.690;2024-03-02T04:21:36;4.80;99.90
16140;DHT22;8175;49.326;12.690;2024-03-02T04:24:02;4.80;99.90
16140;DHT22;8175;49.326;12.690;2024-03-02T04:26:28;4.90;99.90
16140;DHT22;8175;49.326;12.690;2024-03-02T04:28:54;4.90;99.90
16140;DHT22;8175;49.326;12.690;2024-03-02T04:31:20;4.80;99.90
16140;DHT22;8175;49.326;12.690;2024-03-02T04:33:46;4.90;99.90
16140;DHT22;8175;49.326;12.690;2024-03-02T04:36:11;4.90;99.90
16140;DHT22;8175;49.326;12.690;2024-03-02T04:38:38;4.80;99.90
16140;DHT22;8175;49.326;12.690;2024-03-02T04:41:05;4.80;99.90
16140;DHT22;8175;49.326;12.690;2024-03-02T04:43:34;4.80;99.90
16140;DHT22;8175;49.326;12.690;2024-03-02T04:46:00;4.90;99.90
16140;DHT22;8175;49.326;12.690;2024-03-02T04:48:26;4.90;99.90
16140;DHT22;8175;49.326;12.690;2024-03-02T04:50:52;4.90;99.90
16140;DHT22;8175;49.326;12.690;2024-03-02T04:53:17;4.90;99.90
16140;DHT22;8175;49.326;12.690;2024-03-02T04:55:43;4.90;99.90
16140;DHT22;8175;49.326;12.690;2024-03-02T04:58:09;4.90;99.90
16140;DHT22;8175;49.326;12.690;2024-03-02T05:00:35;4.90;99.90
16140;DHT22;8175;49.326;12.690;2024-03-02T05:03:02;4.90;99.90
16140;DHT22;8175;49.326;12.690;2024-03-02T05:05:27;4.90;99.90
16140;DHT22;8175;49.326;12.690;2024-03-02T05:07:53;4.90;99.90
16140;DHT22;8175;49.326;12.690;2024-03-02T05:10:19;4.90;99.90
16140;DHT22;8175;49.326;12.690;2024-03-02T05:12:44;4.90;99.90
16140;DHT22;8175;49.326;12.690;2024-03-02T05:15:12;4.90;99.90
16140;DHT22;8175;49.326;12.690;2024-03-02T05:17:38;4.80;99.90
16140;DHT22;8175;49.326;12.690;2024-03-02T05:20:05;4.90;99.90
16140;DHT22;8175;49.326;12.690;2024-03-02T05:22:31;4.90;99.90
16140;DHT22;8175;49.326;12.690;2024-03-02T05:24:57;4.90;99.90
16140;DHT22;8175;49.326;12.690;2024-03-02T05:27:24;4.90;99.90
16140;DHT22;8175;49.326;12.690;2024-03-02T05:29:49;4.80;99.90
16140;DHT22;8175;49.326;12.690;2024-03-02T05:32:15;4.90;99.90
16140;DHT22;8175;49.326;12.690;2024-03-02T05:34:41;4.90;99.90
16140;DHT22;8175;49.326;12.690;2024-03-02T05:37:06;4.90;99.90
16140;DHT22;8175;49.326;12.690;2024-03-02T05:39:32;4.90;99.90
16140;DHT22;8175;49.326;12.690;2024-03-02T05:41:58;4.90;99.90
16140;DHT22;8175;49.326;12.690;2024-03-02T05:44:23;4.90;99.90
16140;DHT22;8175;49.326;12.690;2024-03-02T05:46:49;4.90;99.90
16140;DHT22;8175;49.326;12.690;2024-03-02T05:49:15;4.90;99.90
16140;DHT22;8175;49.326;12.690;2024-03-02T05:51:40;4.90;99.90
16140;DHT22;8175;49.326;12.690;2024-03-02T05:54:07;4.90;99.90
16140;DHT22;8175;49.326;12.690;2024-03-02T05:56:32;4.80;99.90
16140;DHT22;8175;49.326;12.690;2024-03-02T05:58:58;4.90;99.90
16140;DHT22;8175;49.326;12.690;2024-03-02T06:01:43;4.90;99.90
16140;DHT22;8175;49.326;12.690;2024-03-02T06:04:13;4.90;99.90
16140;DHT22;8175;49.326;12.690;2024-03-02T06:06:39;4.90;99.90
16140;DHT22;8175;49.326;12.690;2024-03-02T06:09:05;4.90;99.90
16140;DHT22;8175;49.326;12.690;2024-03-02T06:11:36;4.90;99.90
16140;DHT22;8175;49.326;12.690;2024-03-02T06:14:03;4.90;99.90
16140;DHT22;8175;49.326;12.690;2024-03-02T06:16:29;4.90;99.90
16140;DHT22;8175;49.326;12.690;2024-03-02T06:18:55;4.90;99.90
16140;DHT22;8175;49.326;12.690;2024-03-02T06:21:23;5.00;99.90
16140;DHT22;8175;49.326;12.690;2024-03-02T06:23:49;4.90;99.90
16140;DHT22;8175;49.326;12.690;2024-03-02T06:26:14;5.00;99.90
16140;DHT22;8175;49.326;12.690;2024-03-02T06:28:40;5.00;99.90
16140;DHT22;8175;49.326;12.690;2024-03-02T06:31:06;5.00;99.90
16140;DHT22;8175;49.326;12.690;2024-03-02T06:33:31;5.00;99.90
16140;DHT22;8175;49.326;12.690;2024-03-02T06:35:57;5.00;99.90
16140;DHT22;8175;49.326;12.690;2024-03-02T06:38:23;5.00;99.90
16140;DHT22;8175;49.326;12.690;2024-03-02T06:40:48;5.10;99.90
16140;DHT22;8175;49.326;12.690;2024-03-02T06:43:14;5.10;99.90
16140;DHT22;8175;49.326;12.690;2024-03-02T06:45:39;5.10;99.90
16140;DHT22;8175;49.326;12.690;2024-03-02T06:48:05;5.10;99.90
16140;DHT22;8175;49.326;12.690;2024-03-02T06:50:31;5.10;99.90
16140;DHT22;8175;49.326;12.690;2024-03-02T06:52:57;5.20;99.90
16140;DHT22;8175;49.326;12.690;2024-03-02T06:55:23;5.30;99.90
16140;DHT22;8175;49.326;12.690;2024-03-02T06:57:50;5.40;99.90
16140;DHT22;8175;49.326;12.690;2024-03-02T07:00:16;5.50;99.90
16140;DHT22;8175;49.326;12.690;2024-03-02T07:02:43;5.50;99.90
16140;DHT22;8175;49.326;12.690;2024-03-02T07:05:10;5.50;99.90
16140;DHT22;8175;49.326;12.690;2024-03-02T07:07:35;5.50;99.90
16140;DHT22;8175;49.326;12.690;2024-03-02T07:10:05;5.60;99.90
16140;DHT22;8175;49.326;12.690;2024-03-02T07:12:31;5.60;99.90
16140;DHT22;8175;49.326;12.690;2024-03-02T07:14:57;5.60;99.90
16140;DHT22;8175;49.326;12.690;2024-03-02T07:17:28;5.60;99.90
16140;DHT22;8175;49.326;12.690;2024-03-02T07:19:54;5.70;99.90
16140;DHT22;8175;49.326;12.690;2024-03-02T07:22:20;5.90;99.90
16140;DHT22;8175;49.326;12.690;2024-03-02T07:24:45;6.10;99.90
16140;DHT22;8175;49.326;12.690;2024-03-02T07:27:12;6.20;99.90
16140;DHT22;8175;49.326;12.690;2024-03-02T07:29:39;6.20;99.90
16140;DHT22;8175;49.326;12.690;2024-03-02T07:32:05;6.30;99.90
16140;DHT22;8175;49.326;12.690;2024-03-02T07:34:31;6.30;99.90
16140;DHT22;8175;49.326;12.690;2024-03-02T07:36:57;6.40;99.90
16140;DHT22;8175;49.326;12.690;2024-03-02T07:39:23;6.50;99.90
16140;DHT22;8175;49.326;12.690;2024-03-02T07:41:49;6.60;99.90
16140;DHT22;8175;49.326;12.690;2024-03-02T07:44:15;6.60;99.90
16140;DHT22;8175;49.326;12.690;2024-03-02T07:46:43;6.80;99.90
16140;DHT22;8175;49.326;12.690;2024-03-02T07:49:09;6.80;99.90
16140;DHT22;8175;49.326;12.690;2024-03-02T07:51:35;6.90;99.90
16140;DHT22;8175;49.326;12.690;2024-03-02T07:54:01;7.20;99.90
16140;DHT22;8175;49.326;12.690;2024-03-02T07:56:27;7.10;99.90
16140;DHT22;8175;49.326;12.690;2024-03-02T07:58:53;7.20;99.90
16140;DHT22;8175;49.326;12.690;2024-03-02T08:01:19;7.30;99.90
16140;DHT22;8175;49.326;12.690;2024-03-02T08:03:45;7.60;99.90
16140;DHT22;8175;49.326;12.690;2024-03-02T08:06:16;7.60;99.90
16140;DHT22;8175;49.326;12.690;2024-03-02T08:08:42;7.80;99.90
16140;DHT22;8175;49.326;12.690;2024-03-02T08:11:07;7.80;99.90
16140;DHT22;8175;49.326;12.690;2024-03-02T08:13:33;8.00;99.90
16140;DHT22;8175;49.326;12.690;2024-03-02T08:15:59;7.90;99.90
16140;DHT22;8175;49.326;12.690;2024-03-02T08:18:25;7.80;99.90
16140;DHT22;8175;49.326;12.690;2024-03-02T08:20:50;7.80;99.90
16140;DHT22;8175;49.326;12.690;2024-03-02T08:23:17;7.90;99.90
16140;DHT22;8175;49.326;12.690;2024-03-02T08:25:43;8.00;99.90
16140;DHT22;8175;49.326;12.690;2024-03-02T08:28:09;8.20;99.90
16140;DHT22;8175;49.326;12.690;2024-03-02T08:30:34;8.20;99.90
16140;DHT22;8175;49.326;12.690;2024-03-02T08:33:00;8.30;99.90
16140;DHT22;8175;49.326;12.690;2024-03-02T08:35:26;8.30;99.90
16140;DHT22;8175;49.326;12.690;2024-03-02T08:37:51;8.20;99.90
16140;DHT22;8175;49.326;12.690;2024-03-02T08:40:17;8.00;99.90
16140;DHT22;8175;49.326;12.690;2024-03-02T08:42:43;8.00;99.90
16140;DHT22;8175;49.326;12.690;2024-03-02T08:45:09;7.90;99.90
16140;DHT22;8175;49.326;12.690;2024-03-02T08:47:34;7.80;99.90
16140;DHT22;8175;49.326;12.690;2024-03-02T08:50:00;7.80;99.90
16140;DHT22;8175;49.326;12.690;2024-03-02T08:52:26;7.80;99.90
16140;DHT22;8175;49.326;12.690;2024-03-02T08:54:52;7.90;99.90
16140;DHT22;8175;49.326;12.690;2024-03-02T08:57:18;7.90;99.90
16140;DHT22;8175;49.326;12.690;2024-03-02T08:59:44;7.90;99.90
16140;DHT22;8175;49.326;12.690;2024-03-02T09:02:10;8.00;99.90
16140;DHT22;8175;49.326;12.690;2024-03-02T09:04:35;8.10;99.90
16140;DHT22;8175;49.326;12.690;2024-03-02T09:07:01;8.20;99.90
16140;DHT22;8175;49.326;12.690;2024-03-02T09:09:27;8.20;99.90
16140;DHT22;8175;49.326;12.690;2024-03-02T09:11:53;8.30;99.90
16140;DHT22;8175;49.326;12.690;2024-03-02T09:14:23;8.30;99.90
16140;DHT22;8175;49.326;12.690;2024-03-02T09:16:49;8.40;99.90
16140;DHT22;8175;49.326;12.690;2024-03-02T09:19:14;8.60;99.90
16140;DHT22;8175;49.326;12.690;2024-03-02T09:21:42;8.90;99.90
16140;DHT22;8175;49.326;12.690;2024-03-02T09:24:07;9.10;99.90
16140;DHT22;8175;49.326;12.690;2024-03-02T09:26:33;9.30;99.90
16140;DHT22;8175;49.326;12.690;2024-03-02T09:28:58;9.50;99.90
16140;DHT22;8175;49.326;12.690;2024-03-02T09:31:24;9.60;99.90
16140;DHT22;8175;49.326;12.690;2024-03-02T09:33:50;9.80;99.90
16140;DHT22;8175;49.326;12.690;2024-03-02T09:36:19;10.10;99.90
16140;DHT22;8175;49.326;12.690;2024-03-02T09:38:46;10.20;99.90
16140;DHT22;8175;49.326;12.690;2024-03-02T09:41:12;10.20;99.90
16140;DHT22;8175;49.326;12.690;2024-03-02T09:43:38;9.90;99.90
16140;DHT22;8175;49.326;12.690;2024-03-02T09:46:04;9.70;99.90
16140;DHT22;8175;49.326;12.690;2024-03-02T09:48:30;9.80;99.90
16140;DHT22;8175;49.326;12.690;2024-03-02T09:50:56;10.20;99.90
16140;DHT22;8175;49.326;12.690;2024-03-02T09:53:22;10.40;99.90
16140;DHT22;8175;49.326;12.690;2024-03-02T09:55:48;10.60;99.90
16140;DHT22;8175;49.326;12.690;2024-03-02T09:58:14;10.60;99.90
16140;DHT22;8175;49.326;12.690;2024-03-02T10:00:39;10.40;99.90
16140;DHT22;8175;49.326;12.690;2024-03-02T10:03:05;10.20;99.90
16140;DHT22;8175;49.326;12.690;2024-03-02T10:05:36;10.50;99.90
16140;DHT22;8175;49.326;12.690;2024-03-02T10:08:03;11.10;99.90
16140;DHT22;8175;49.326;12.690;2024-03-02T10:13:08;11.40;99.90
16140;DHT22;8175;49.326;12.690;2024-03-02T10:15:35;11.40;99.90
16140;DHT22;8175;49.326;12.690;2024-03-02T10:18:03;11.10;99.90
16140;DHT22;8175;49.326;12.690;2024-03-02T10:20:29;11.00;99.90
16140;DHT22;8175;49.326;12.690;2024-03-02T10:22:55;10.90;99.90
16140;DHT22;8175;49.326;12.690;2024-03-02T10:25:31;10.80;99.90
16140;DHT22;8175;49.326;12.690;2024-03-02T10:28:00;10.70;99.90
16140;DHT22;8175;49.326;12.690;2024-03-02T10:30:27;10.60;99.90
16140;DHT22;8175;49.326;12.690;2024-03-02T10:32:54;10.40;99.90
16140;DHT22;8175;49.326;12.690;2024-03-02T10:35:22;10.20;99.90
16140;DHT22;8175;49.326;12.690;2024-03-02T10:37:52;10.30;99.90
16140;DHT22;8175;49.326;12.690;2024-03-02T10:40:21;10.60;99.90
16140;DHT22;8175;49.326;12.690;2024-03-02T10:42:48;10.80;99.90
16140;DHT22;8175;49.326;12.690;2024-03-02T10:45:16;10.90;99.90
16140;DHT22;8175;49.326;12.690;2024-03-02T10:47:43;10.90;99.90
16140;DHT22;8175;49.326;12.690;2024-03-02T10:50:10;11.40;99.90
16140;DHT22;8175;49.326;12.690;2024-03-02T10:52:36;11.60;99.90
16140;DHT22;8175;49.326;12.690;2024-03-02T10:55:03;11.70;99.90
16140;DHT22;8175;49.326;12.690;2024-03-02T10:57:50;11.80;99.90
16140;DHT22;8175;49.326;12.690;2024-03-02T11:00:16;11.80;99.90
16140;DHT22;8175;49.326;12.690;2024-03-02T11:03:11;11.70;99.90
16140;DHT22;8175;49.326;12.690;2024-03-02T11:05:39;12.90;99.90
16140;DHT22;8175;49.326;12.690;2024-03-02T11:08:07;13.00;99.90
16140;DHT22;8175;49.326;12.690;2024-03-02T11:10:50;12.70;99.90
16140;DHT22;8175;49.326;12.690;2024-03-02T11:13:22;12.00;99.90
16140;DHT22;8175;49.326;12.690;2024-03-02T11:15:53;11.50;99.90
16140;DHT22;8175;49.326;12.690;2024-03-02T11:18:21;11.30;99.90
16140;DHT22;8175;49.326;12.690;2024-03-02T11:20:47;11.00;99.90
16140;DHT22;8175;49.326;12.690;2024-03-02T11:23:13;11.00;99.90
16140;DHT22;8175;49.326;12.690;2024-03-02T11:25:40;11.10;99.90
16140;DHT22;8175;49.326;12.690;2024-03-02T11:28:07;11.20;99.90
16140;DHT22;8175;49.326;12.690;2024-03-02T11:33:09;11.10;99.90
16140;DHT22;8175;49.326;12.690;2024-03-02T11:35:35;12.10;99.90
16140;DHT22;8175;49.326;12.690;2024-03-02T11:38:03;13.70;99.90
16140;DHT22;8175;49.326;12.690;2024-03-02T11:40:29;14.40;99.90
16140;DHT22;8175;49.326;12.690;2024-03-02T11:42:56;14.70;99.90
16140;DHT22;8175;49.326;12.690;2024-03-02T11:45:23;15.30;99.90
16140;DHT22;8175;49.326;12.690;2024-03-02T11:47:58;15.30;99.90
16140;DHT22;8175;49.326;12.690;2024-03-02T11:50:35;16.30;99.90
16140;DHT22;8175;49.326;12.690;2024-03-02T11:53:05;16.80;99.90
16140;DHT22;8175;49.326;12.690;2024-03-02T11:55:38;16.50;97.90
16140;DHT22;8175;49.326;12.690;2024-03-02T11:58:06;15.80;99.90
16140;DHT22;8175;49.326;12.690;2024-03-02T12:00:32;15.30;99.90
16140;DHT22;8175;49.326;12.690;2024-03-02T12:03:05;15.00;99.90
16140;DHT22;8175;49.326;12.690;2024-03-02T12:05:32;14.80;99.90
16140;DHT22;8175;49.326;12.690;2024-03-02T12:08:03;15.40;99.90
16140;DHT22;8175;49.326;12.690;2024-03-02T12:10:29;16.00;99.90
16140;DHT22;8175;49.326;12.690;2024-03-02T12:13:02;16.40;97.30
16140;DHT22;8175;49.326;12.690;2024-03-02T12:15:30;16.40;99.50
16140;DHT22;8175;49.326;12.690;2024-03-02T12:17:57;16.70;94.00
16140;DHT22;8175;49.326;12.690;2024-03-02T12:20:24;16.70;93.20
16140;DHT22;8175;49.326;12.690;2024-03-02T12:22:51;17.10;91.80
16140;DHT22;8175;49.326;12.690;2024-03-02T12:25:21;17.40;91.50
16140;DHT22;8175;49.326;12.690;2024-03-02T12:27:49;16.70;89.70
16140;DHT22;8175;49.326;12.690;2024-03-02T12:30:18;16.00;92.20
16140;DHT22;8175;49.326;12.690;2024-03-02T12:32:45;15.70;91.80
16140;DHT22;8175;49.326;12.690;2024-03-02T12:35:11;16.60;94.00
16140;DHT22;8175;49.326;12.690;2024-03-02T12:37:58;17.60;88.50
16140;DHT22;8175;49.326;12.690;2024-03-02T12:40:24;18.80;77.90
16140;DHT22;8175;49.326;12.690;2024-03-02T12:42:50;19.10;68.00
16140;DHT22;8175;49.326;12.690;2024-03-02T12:45:16;18.50;63.80
16140;DHT22;8175;49.326;12.690;2024-03-02T12:47:49;17.10;70.50
16140;DHT22;8175;49.326;12.690;2024-03-02T12:50:14;16.10;81.10
16140;DHT22;8175;49.326;12.690;2024-03-02T12:52:40;15.30;88.10
16140;DHT22;8175;49.326;12.690;2024-03-02T12:55:06;14.80;93.80
16140;DHT22;8175;49.326;12.690;2024-03-02T12:57:33;14.90;96.80
16140;DHT22;8175;49.326;12.690;2024-03-02T13:00:00;14.80;99.90
16140;DHT22;8175;49.326;12.690;2024-03-02T13:02:30;14.50;99.90
16140;DHT22;8175;49.326;12.690;2024-03-02T13:04:57;14.60;99.90
16140;DHT22;8175;49.326;12.690;2024-03-02T13:07:24;14.80;99.90
16140;DHT22;8175;49.326;12.690;2024-03-02T13:09:51;14.80;99.90
16140;DHT22;8175;49.326;12.690;2024-03-02T13:12:17;14.50;99.90
16140;DHT22;8175;49.326;12.690;2024-03-02T13:14:43;14.10;99.90
16140;DHT22;8175;49.326;12.690;2024-03-02T13:17:09;13.90;99.90
16140;DHT22;8175;49.326;12.690;2024-03-02T13:19:35;13.70;99.90
16140;DHT22;8175;49.326;12.690;2024-03-02T13:22:01;13.90;99.90
16140;DHT22;8175;49.326;12.690;2024-03-02T13:24:30;14.10;99.90
16140;DHT22;8175;49.326;12.690;2024-03-02T13:26:56;13.70;99.90
16140;DHT22;8175;49.326;12.690;2024-03-02T13:29:23;14.80;99.90
16140;DHT22;8175;49.326;12.690;2024-03-02T13:31:49;16.20;99.90
16140;DHT22;8175;49.326;12.690;2024-03-02T13:34:15;16.70;98.20
16140;DHT22;8175;49.326;12.690;2024-03-02T13:36:41;17.60;93.00
16140;DHT22;8175;49.326;12.690;2024-03-02T13:39:07;17.50;85.30
16140;DHT22;8175;49.326;12.690;2024-03-02T13:41:35;17.60;86.90
16140;DHT22;8175;49.326;12.690;2024-03-02T13:44:01;16.80;87.70
16140;DHT22;8175;49.326;12.690;2024-03-02T13:46:27;16.20;91.00
16140;DHT22;8175;49.326;12.690;2024-03-02T13:48:54;16.20;93.60
16140;DHT22;8175;49.326;12.690;2024-03-02T13:51:20;15.60;94.90
16140;DHT22;8175;49.326;12.690;2024-03-02T13:53:45;15.30;94.00
16140;DHT22;8175;49.326;12.690;2024-03-02T13:56:11;15.30;96.30
16140;DHT22;8175;49.326;12.690;2024-03-02T13:58:37;15.70;96.00
16140;DHT22;8175;49.326;12.690;2024-03-02T14:01:04;15.10;97.90
16140;DHT22;8175;49.326;12.690;2024-03-02T14:03:30;14.90;99.90
16140;DHT22;8175;49.326;12.690;2024-03-02T14:05:56;14.20;99.90
16140;DHT22;8175;49.326;12.690;2024-03-02T14:08:22;13.30;99.90
16140;DHT22;8175;49.326;12.690;2024-03-02T14:10:48;12.10;99.90
16140;DHT22;8175;49.326;12.690;2024-03-02T14:13:14;11.90;99.90
16140;DHT22;8175;49.326;12.690;2024-03-02T14:15:41;12.00;99.90
16140;DHT22;8175;49.326;12.690;2024-03-02T14:18:07;11.60;99.90
16140;DHT22;8175;49.326;12.690;2024-03-02T14:20:35;11.10;99.90
16140;DHT22;8175;49.326;12.690;2024-03-02T14:23:01;10.90;99.90
16140;DHT22;8175;49.326;12.690;2024-03-02T14:25:28;11.10;99.90
16140;DHT22;8175;49.326;12.690;2024-03-02T14:27:57;11.20;99.90
16140;DHT22;8175;49.326;12.690;2024-03-02T14:30:23;11.70;99.90
16140;DHT22;8175;49.326;12.690;2024-03-02T14:32:49;13.30;99.90
16140;DHT22;8175;49.326;12.690;2024-03-02T14:35:14;14.70;99.90
16140;DHT22;8175;49.326;12.690;2024-03-02T14:37:40;14.60;99.90
16140;DHT22;8175;49.326;12.690;2024-03-02T14:40:07;15.50;99.90
16140;DHT22;8175;49.326;12.690;2024-03-02T14:42:35;15.80;95.50
16140;DHT22;8175;49.326;12.690;2024-03-02T14:45:01;15.40;98.00
16140;DHT22;8175;49.326;12.690;2024-03-02T14:47:29;15.40;99.50
16140;DHT22;8175;49.326;12.690;2024-03-02T14:49:56;14.80;99.30
16140;DHT22;8175;49.326;12.690;2024-03-02T14:52:22;14.00;99.90
16140;DHT22;8175;49.326;12.690;2024-03-02T14:54:47;13.40;99.90
16140;DHT22;8175;49.326;12.690;2024-03-02T14:57:13;13.60;99.90
16140;DHT22;8175;49.326;12.690;2024-03-02T14:59:39;14.50;99.90
16140;DHT22;8175;49.326;12.690;2024-03-02T15:02:05;14.80;99.90
16140;DHT22;8175;49.326;12.690;2024-03-02T15:04:31;15.10;99.90
16140;DHT22;8175;49.326;12.690;2024-03-02T15:06:57;15.60;99.90
16140;DHT22;8175;49.326;12.690;2024-03-02T15:09:22;14.50;99.90
16140;DHT22;8175;49.326;12.690;2024-03-02T15:11:48;14.60;99.90
16140;DHT22;8175;49.326;12.690;2024-03-02T15:14:14;14.70;99.90
16140;DHT22;8175;49.326;12.690;2024-03-02T15:16:40;14.70;99.90
16140;DHT22;8175;49.326;12.690;2024-03-02T15:19:07;14.10;99.90
16140;DHT22;8175;49.326;12.690;2024-03-02T15:21:33;13.10;99.90
16140;DHT22;8175;49.326;12.690;2024-03-02T15:23:58;13.10;99.90
16140;DHT22;8175;49.326;12.690;2024-03-02T15:26:24;12.90;99.90
16140;DHT22;8175;49.326;12.690;2024-03-02T15:28:50;12.30;99.90
16140;DHT22;8175;49.326;12.690;2024-03-02T15:31:16;12.10;99.90
16140;DHT22;8175;49.326;12.690;2024-03-02T15:33:42;11.90;99.90
16140;DHT22;8175;49.326;12.690;2024-03-02T15:36:08;11.70;99.90
16140;DHT22;8175;49.326;12.690;2024-03-02T15:38:34;11.70;99.90
16140;DHT22;8175;49.326;12.690;2024-03-02T15:41:03;11.50;99.90
16140;DHT22;8175;49.326;12.690;2024-03-02T15:43:29;11.30;99.90